createdAt,value
2023-01-09T00:01:20.550Z,1.60
2023-01-09T00:03:47.591Z,1.45
2023-01-09T00:06:14.643Z,0.82
2023-01-09T00:08:41.653Z,1.30
2023-01-09T00:11:09.723Z,1.00
2023-01-09T00:13:37.879Z,0.68
2023-01-09T00:16:06.212Z,0.93
2023-01-09T00:18:33.766Z,1.23
2023-01-09T00:21:04.727Z,0.32
2023-01-09T00:23:31.717Z,0.80
2023-01-09T00:26:05.528Z,1.08
2023-01-09T00:28:33.720Z,1.15
2023-01-09T00:31:02.351Z,2.85
2023-01-09T00:33:41.849Z,1.08
2023-01-09T00:36:10.178Z,1.33
2023-01-09T00:38:37.584Z,0.40
2023-01-09T00:41:12.696Z,0.60
2023-01-09T00:43:45.288Z,0.30
2023-01-09T00:46:17.377Z,0.95
2023-01-09T00:48:47.080Z,0.63
2023-01-09T00:51:14.594Z,0.47
2023-01-09T00:53:43.323Z,0.30
2023-01-09T00:56:15.016Z,0.32
2023-01-09T00:58:43.030Z,0.15
2023-01-09T01:01:10.238Z,0.40
2023-01-09T01:03:37.385Z,0.13
2023-01-09T01:06:23.198Z,0.47
2023-01-09T01:08:50.426Z,1.50
2023-01-09T01:11:17.372Z,0.10
2023-01-09T01:13:44.380Z,0.70
2023-01-09T01:16:13.353Z,0.22
2023-01-09T01:18:41.173Z,1.35
2023-01-09T01:21:13.991Z,0.22
2023-01-09T01:23:41.274Z,0.00
2023-01-09T01:26:14.355Z,0.10
2023-01-09T01:28:42.173Z,0.22
2023-01-09T01:31:15.212Z,0.20
2023-01-09T01:33:42.395Z,0.35
2023-01-09T01:36:09.736Z,0.10
2023-01-09T01:38:37.233Z,0.73
2023-01-09T01:41:05.008Z,0.40
2023-01-09T01:43:52.198Z,0.85
2023-01-09T01:46:19.535Z,0.90
2023-01-09T01:48:49.871Z,1.33
2023-01-09T01:51:25.252Z,0.55
2023-01-09T01:53:55.707Z,0.38
2023-01-09T01:56:30.338Z,1.63
2023-01-09T01:59:05.623Z,3.13
2023-01-09T02:01:33.981Z,0.85
2023-01-09T02:04:02.779Z,0.88
2023-01-09T02:06:33.389Z,0.60
2023-01-09T02:09:03.033Z,0.63
2023-01-09T02:11:30.675Z,0.45
2023-01-09T02:14:02.174Z,0.13
2023-01-09T02:16:35.345Z,0.53
2023-01-09T02:19:20.522Z,1.23
2023-01-09T02:21:58.887Z,0.98
2023-01-09T02:24:49.965Z,0.88
2023-01-09T02:27:37.084Z,0.82
2023-01-09T02:30:37.645Z,0.65
2023-01-09T02:33:26.362Z,1.58
2023-01-09T02:36:19.482Z,0.70
2023-01-09T02:39:24.960Z,1.25
2023-01-09T02:42:12.953Z,1.50
2023-01-09T02:44:43.064Z,1.67
2023-01-09T02:47:16.208Z,2.28
2023-01-09T02:49:46.553Z,1.83
2023-01-09T02:52:41.558Z,2.08
2023-01-09T02:55:14.319Z,1.88
2023-01-09T02:58:28.341Z,2.67
2023-01-09T03:01:08.048Z,1.40
2023-01-09T03:03:57.620Z,0.93
2023-01-09T03:06:36.826Z,1.33
2023-01-09T03:09:12.210Z,1.33
2023-01-09T03:11:44.160Z,1.38
2023-01-09T03:14:24.280Z,1.95
2023-01-09T03:16:58.431Z,1.52
2023-01-09T03:19:29.890Z,0.65
2023-01-09T03:21:57.501Z,1.70
2023-01-09T03:24:27.137Z,0.93
2023-01-09T03:26:55.486Z,0.73
2023-01-09T03:29:22.879Z,0.68
2023-01-09T03:31:49.971Z,0.68
2023-01-09T03:34:17.099Z,1.30
2023-01-09T03:36:44.124Z,1.42
2023-01-09T03:39:11.317Z,1.25
2023-01-09T03:41:38.261Z,1.80
2023-01-09T03:44:05.245Z,2.30
2023-01-09T03:46:34.487Z,1.90
2023-01-09T03:49:01.771Z,1.60
2023-01-09T03:51:28.702Z,0.98
2023-01-09T03:53:55.788Z,0.68
2023-01-09T03:56:22.836Z,0.40
2023-01-09T03:58:50.392Z,0.73
2023-01-09T04:01:20.182Z,0.20
2023-01-09T04:03:48.739Z,0.65
2023-01-09T04:06:15.833Z,0.90
2023-01-09T04:08:42.916Z,2.35
2023-01-09T04:11:09.997Z,0.60
2023-01-09T04:13:37.016Z,0.80
2023-01-09T04:16:04.200Z,0.77
2023-01-09T04:18:31.391Z,1.02
2023-01-09T04:20:58.399Z,1.92
2023-01-09T04:23:25.455Z,3.85
2023-01-09T04:25:53.977Z,1.42
2023-01-09T04:28:23.290Z,1.52
2023-01-09T04:30:50.288Z,0.57
2023-01-09T04:33:17.557Z,1.20
2023-01-09T04:35:44.515Z,1.05
2023-01-09T04:38:11.563Z,1.42
2023-01-09T04:40:39.630Z,2.03
2023-01-09T04:43:06.731Z,0.82
2023-01-09T04:45:33.865Z,0.95
2023-01-09T04:48:01.041Z,1.70
2023-01-09T04:50:28.581Z,1.77
2023-01-09T04:52:56.838Z,2.47
2023-01-09T04:55:26.234Z,1.70
2023-01-09T04:57:53.242Z,2.75
2023-01-09T05:00:20.622Z,4.93
2023-01-09T05:02:47.618Z,2.05
2023-01-09T05:05:14.717Z,0.75
2023-01-09T05:07:42.083Z,1.38
2023-01-09T05:10:10.405Z,1.83
2023-01-09T05:12:37.704Z,3.15
2023-01-09T05:15:06.528Z,2.08
2023-01-09T05:17:33.594Z,1.98
2023-01-09T05:20:01.151Z,2.78
2023-01-09T05:22:28.355Z,1.35
2023-01-09T05:24:55.589Z,3.60
2023-01-09T05:27:22.933Z,2.22
2023-01-09T05:29:49.879Z,1.67
2023-01-09T05:32:17.231Z,3.00
2023-01-09T05:34:44.250Z,3.13
2023-01-09T05:37:11.347Z,1.75
2023-01-09T05:39:38.368Z,1.92
2023-01-09T05:42:05.413Z,3.38
2023-01-09T05:44:32.724Z,3.45
2023-01-09T05:47:01.918Z,1.77
2023-01-09T05:49:29.687Z,1.45
2023-01-09T05:51:56.995Z,3.35
2023-01-09T05:54:26.453Z,1.45
2023-01-09T05:56:56.162Z,1.77
2023-01-09T05:59:23.531Z,1.58
2023-01-09T06:01:50.921Z,2.95
2023-01-09T06:04:17.993Z,0.68
2023-01-09T06:06:44.988Z,1.63
2023-01-09T06:09:12.257Z,1.88
2023-01-09T06:11:39.327Z,1.30
2023-01-09T06:14:06.759Z,0.90
2023-01-09T06:16:33.837Z,2.95
2023-01-09T06:19:02.100Z,0.85
2023-01-09T06:21:29.635Z,1.23
2023-01-09T06:23:56.909Z,1.42
2023-01-09T06:26:24.974Z,2.22
2023-01-09T06:28:55.177Z,1.42
2023-01-09T06:31:26.450Z,1.73
2023-01-09T06:33:54.009Z,0.70
2023-01-09T06:36:22.646Z,2.28
2023-01-09T06:38:49.803Z,1.23
2023-01-09T06:41:17.084Z,1.08
2023-01-09T06:43:44.387Z,2.13
2023-01-09T06:46:11.738Z,1.42
2023-01-09T06:48:38.829Z,1.80
2023-01-09T06:51:06.104Z,2.05
2023-01-09T06:53:33.228Z,2.60
2023-01-09T06:56:00.142Z,1.58
2023-01-09T06:58:27.126Z,1.38
2023-01-09T07:00:59.494Z,3.97
2023-01-09T07:05:56.567Z,2.55
2023-01-09T07:08:26.243Z,1.30
2023-01-09T07:10:53.879Z,1.80
2023-01-09T07:13:20.914Z,1.98
2023-01-09T07:15:49.827Z,4.20
2023-01-09T07:18:16.854Z,1.40
2023-01-09T07:20:43.925Z,1.52
2023-01-09T07:23:14.251Z,4.80
2023-01-09T07:25:46.020Z,2.13
2023-01-09T07:28:15.986Z,2.33
2023-01-09T07:30:43.639Z,4.10
2023-01-09T07:33:10.587Z,2.13
2023-01-09T07:35:38.017Z,1.05
2023-01-09T07:38:05.118Z,1.92
2023-01-09T07:40:32.043Z,3.47
2023-01-09T07:42:59.041Z,2.88
2023-01-09T07:45:26.119Z,1.88
2023-01-09T07:47:56.053Z,1.95
2023-01-09T07:50:23.316Z,2.00
2023-01-09T07:52:50.597Z,0.73
2023-01-09T07:55:21.308Z,2.20
2023-01-09T07:57:56.185Z,2.15
2023-01-09T08:00:23.530Z,1.80
2023-01-09T08:02:54.518Z,3.92
2023-01-09T08:05:21.933Z,5.47
2023-01-09T08:07:50.959Z,3.38
2023-01-09T08:10:24.810Z,1.45
2023-01-09T08:12:51.864Z,1.77
2023-01-09T08:15:19.189Z,2.72
2023-01-09T08:17:46.964Z,2.17
2023-01-09T08:20:16.806Z,4.65
2023-01-09T08:22:49.680Z,2.80
2023-01-09T08:25:17.713Z,3.08
2023-01-09T08:27:45.084Z,4.72
2023-01-09T08:30:12.950Z,4.22
2023-01-09T08:32:41.409Z,4.20
2023-01-09T08:35:11.991Z,3.17
2023-01-09T08:37:39.101Z,3.88
2023-01-09T08:40:06.684Z,5.15
2023-01-09T08:42:52.016Z,4.97
2023-01-09T08:45:40.496Z,3.90
2023-01-09T08:48:07.646Z,4.95
2023-01-09T08:50:36.940Z,3.45
2023-01-09T08:53:04.178Z,4.18
2023-01-09T08:55:31.178Z,3.97
2023-01-09T08:57:58.067Z,6.03
2023-01-09T09:00:26.303Z,3.65
2023-01-09T09:02:59.219Z,3.83
2023-01-09T09:05:28.388Z,4.63
2023-01-09T09:07:56.396Z,5.13
2023-01-09T09:10:25.154Z,4.78
2023-01-09T09:12:56.854Z,7.82
2023-01-09T09:15:25.227Z,5.72
2023-01-09T09:17:58.988Z,4.18
2023-01-09T09:20:29.231Z,5.28
2023-01-09T09:22:56.391Z,6.90
2023-01-09T09:25:24.236Z,7.78
2023-01-09T09:27:51.674Z,3.97
2023-01-09T09:30:20.342Z,4.85
2023-01-09T09:32:50.109Z,6.15
2023-01-09T09:35:21.263Z,5.22
2023-01-09T09:37:59.584Z,4.43
2023-01-09T09:40:41.622Z,6.68
2023-01-09T09:44:06.657Z,5.55
2023-01-09T09:46:49.338Z,7.15
2023-01-09T09:52:29.435Z,3.72
2023-01-09T09:55:00.856Z,7.93
2023-01-09T09:57:36.505Z,5.50
2023-01-09T10:00:06.029Z,3.10
2023-01-09T10:02:53.901Z,5.45
2023-01-09T10:05:42.658Z,8.82
2023-01-09T10:08:38.159Z,5.32
2023-01-09T10:11:10.083Z,6.88
2023-01-09T10:13:56.032Z,4.20
2023-01-09T10:17:03.473Z,5.75
2023-01-09T10:19:33.716Z,6.35
2023-01-09T10:22:25.626Z,5.57
2023-01-09T10:25:18.299Z,8.20
2023-01-09T10:30:39.625Z,6.50
2023-01-09T10:33:10.952Z,7.32
2023-01-09T10:36:02.795Z,7.43
2023-01-09T10:38:34.763Z,9.53
2023-01-09T10:41:25.171Z,8.60
2023-01-09T10:44:15.219Z,6.82
2023-01-09T10:46:48.785Z,7.07
2023-01-09T10:49:19.945Z,5.82
2023-01-09T10:51:52.569Z,4.95
2023-01-09T10:54:23.634Z,10.80
2023-01-09T10:57:16.321Z,7.55
2023-01-09T10:59:43.592Z,8.98
2023-01-09T11:02:32.414Z,7.38
2023-01-09T11:04:59.660Z,5.00
2023-01-09T11:07:37.795Z,4.70
2023-01-09T11:10:08.365Z,10.73
2023-01-09T11:12:36.753Z,5.38
2023-01-09T11:15:23.888Z,6.63
2023-01-09T11:17:52.009Z,5.90
2023-01-09T11:20:19.787Z,5.00
2023-01-09T11:22:53.151Z,6.50
2023-01-09T11:25:24.950Z,5.05
2023-01-09T11:28:18.409Z,7.72
2023-01-09T11:31:02.807Z,5.15
2023-01-09T11:33:34.594Z,6.00
2023-01-09T11:36:15.299Z,5.47
2023-01-09T11:38:57.874Z,4.43
2023-01-09T11:43:55.782Z,3.17
2023-01-09T11:46:35.697Z,2.97
2023-01-09T11:49:06.344Z,5.78
2023-01-09T11:51:35.841Z,6.03
2023-01-09T11:54:16.527Z,6.18
2023-01-09T11:56:44.552Z,4.78
2023-01-09T11:59:15.077Z,6.70
2023-01-09T12:01:57.695Z,4.97
2023-01-09T12:04:34.145Z,4.68
2023-01-09T12:07:19.209Z,5.03
2023-01-09T12:10:10.987Z,5.47
2023-01-09T12:13:01.422Z,2.80
2023-01-09T12:16:16.591Z,4.88
2023-01-09T12:19:28.569Z,4.63
2023-01-09T12:22:29.187Z,4.07
2023-01-09T12:24:59.249Z,5.07
2023-01-09T12:27:47.329Z,6.85
2023-01-09T12:30:46.971Z,4.38
2023-01-09T12:33:38.815Z,6.53
2023-01-09T12:36:08.620Z,8.90
2023-01-09T12:38:55.997Z,8.05
2023-01-09T12:41:48.190Z,7.80
2023-01-09T12:44:35.907Z,5.90
2023-01-09T12:47:25.285Z,5.65
2023-01-09T12:50:14.541Z,7.53
2023-01-09T12:53:00.505Z,5.03
2023-01-09T12:55:33.417Z,7.20
2023-01-09T12:58:08.919Z,9.68
2023-01-09T13:00:43.305Z,6.03
2023-01-09T13:04:09.314Z,4.80
2023-01-09T13:06:43.685Z,4.15
2023-01-09T13:09:39.249Z,5.85
2023-01-09T13:12:24.998Z,5.75
2023-01-09T13:14:58.571Z,5.72
2023-01-09T13:17:30.858Z,7.18
2023-01-09T13:19:58.164Z,7.13
2023-01-09T13:22:28.233Z,7.18
2023-01-09T13:25:21.598Z,9.07
2023-01-09T13:27:58.223Z,7.32
2023-01-09T13:30:45.146Z,5.35
2023-01-09T13:33:24.312Z,6.20
2023-01-09T13:35:57.507Z,4.10
2023-01-09T13:38:30.853Z,4.68
2023-01-09T13:41:33.885Z,4.88
2023-01-09T13:46:44.843Z,5.97
2023-01-09T13:49:39.246Z,4.70
2023-01-09T13:52:30.739Z,4.65
2023-01-09T13:55:26.012Z,7.15
2023-01-09T13:58:08.201Z,5.80
2023-01-09T14:00:38.148Z,6.22
2023-01-09T14:03:35.664Z,4.85
2023-01-09T14:06:14.468Z,7.95
2023-01-09T14:08:42.770Z,8.43
2023-01-09T14:11:18.622Z,5.47
2023-01-09T14:13:51.921Z,4.35
2023-01-09T14:16:25.189Z,3.90
2023-01-09T14:19:27.448Z,4.80
2023-01-09T14:21:56.647Z,5.85
2023-01-09T14:24:40.010Z,3.80
2023-01-09T14:27:47.476Z,6.47
2023-01-09T14:30:26.913Z,5.47
2023-01-09T14:33:02.668Z,5.30
2023-01-09T14:35:38.913Z,4.50
2023-01-09T14:38:26.902Z,4.72
2023-01-09T14:41:43.663Z,4.00
2023-01-09T14:44:27.606Z,3.97
2023-01-09T14:47:01.984Z,2.85
2023-01-09T14:49:41.391Z,4.22
2023-01-09T14:52:27.007Z,3.92
2023-01-09T14:57:36.467Z,2.90
2023-01-09T15:00:15.662Z,1.30
2023-01-09T15:02:44.195Z,2.97
2023-01-09T15:05:23.462Z,2.10
2023-01-09T15:07:57.652Z,1.60
2023-01-09T15:10:48.014Z,1.88
2023-01-09T15:13:21.320Z,1.55
2023-01-09T15:16:00.903Z,2.65
2023-01-09T15:18:32.324Z,3.20
2023-01-09T15:21:02.270Z,2.65
2023-01-09T15:23:31.062Z,1.17
2023-01-09T15:26:14.979Z,5.35
2023-01-09T15:28:43.930Z,5.82
2023-01-09T15:31:16.870Z,2.65
2023-01-09T15:33:49.643Z,2.13
2023-01-09T15:36:26.574Z,5.60
2023-01-09T15:38:54.677Z,3.33
2023-01-09T15:41:51.594Z,2.70
2023-01-09T15:44:27.609Z,2.47
2023-01-09T15:47:03.286Z,3.13
2023-01-09T15:49:33.146Z,4.70
2023-01-09T15:52:33.472Z,2.38
2023-01-09T15:55:35.243Z,4.80
2023-01-09T15:58:32.159Z,4.53
2023-01-09T16:01:06.550Z,3.05
2023-01-09T16:03:40.430Z,3.17
2023-01-09T16:06:14.987Z,6.30
2023-01-09T16:08:56.674Z,4.75
2023-01-09T16:11:37.019Z,3.77
2023-01-09T16:14:13.551Z,3.95
2023-01-09T16:17:44.894Z,6.75
2023-01-09T16:20:24.130Z,3.20
2023-01-09T16:23:01.322Z,3.63
2023-01-09T16:25:37.229Z,3.80
2023-01-09T16:28:31.684Z,2.97
2023-01-09T16:31:07.436Z,1.38
2023-01-09T16:33:44.283Z,1.95
2023-01-09T16:37:01.750Z,3.42
2023-01-09T16:39:47.203Z,2.55
2023-01-09T16:42:43.571Z,4.40
2023-01-09T16:45:39.338Z,3.65
2023-01-09T16:48:28.729Z,3.65
2023-01-09T16:51:03.489Z,6.05
2023-01-09T16:53:32.246Z,1.98
2023-01-09T16:56:01.618Z,1.88
2023-01-09T16:58:32.371Z,2.70
2023-01-09T17:01:18.193Z,3.88
2023-01-09T17:03:48.424Z,3.83
2023-01-09T17:06:34.781Z,3.83
2023-01-09T17:09:02.710Z,7.03
2023-01-09T17:11:38.600Z,4.45
2023-01-09T17:14:07.069Z,3.75
2023-01-09T17:16:48.961Z,4.03
2023-01-09T17:24:57.761Z,9.98
2023-01-09T17:28:40.255Z,4.55
2023-01-09T17:31:30.673Z,6.13
2023-01-09T17:33:58.571Z,4.80
2023-01-09T17:36:35.198Z,4.28
2023-01-09T17:39:10.723Z,5.60
2023-01-09T17:41:52.881Z,7.28
2023-01-09T17:44:20.321Z,6.80
2023-01-09T17:46:47.539Z,4.72
2023-01-09T17:49:17.755Z,8.88
2023-01-09T17:51:48.384Z,6.53
2023-01-09T17:54:15.473Z,9.07
2023-01-09T17:56:46.508Z,13.43
2023-01-09T17:59:15.119Z,10.88
2023-01-09T18:01:44.138Z,8.02
2023-01-09T18:04:19.490Z,7.90
2023-01-09T18:06:48.501Z,8.10
2023-01-09T18:09:20.648Z,9.88
2023-01-09T18:11:55.273Z,8.60
2023-01-09T18:14:34.615Z,10.95
2023-01-09T18:17:02.653Z,6.95
2023-01-09T18:19:31.419Z,5.25
2023-01-09T18:22:07.270Z,5.53
2023-01-09T18:24:34.902Z,12.20
2023-01-09T18:27:01.946Z,9.20
2023-01-09T18:29:54.790Z,7.35
2023-01-09T18:34:49.200Z,7.18
2023-01-09T18:37:26.785Z,4.63
2023-01-09T18:43:59.157Z,5.13
2023-01-09T18:47:01.951Z,5.03
2023-01-09T18:49:35.027Z,4.15
2023-01-09T18:52:07.488Z,5.82
2023-01-09T18:55:07.498Z,4.82
2023-01-09T18:58:39.218Z,5.80
2023-01-09T19:01:16.069Z,8.95
2023-01-09T19:03:43.463Z,5.05
2023-01-09T19:06:21.393Z,5.57
2023-01-09T19:08:48.852Z,5.57
2023-01-09T19:11:15.876Z,6.78
2023-01-09T19:13:43.271Z,4.05
2023-01-09T19:16:11.324Z,4.45
2023-01-09T19:18:41.307Z,6.80
2023-01-09T19:21:22.124Z,7.88
2023-01-09T19:26:38.826Z,4.15
2023-01-09T19:29:20.538Z,5.18
2023-01-09T19:31:53.436Z,7.45
2023-01-09T19:34:20.929Z,7.38
2023-01-09T19:37:00.642Z,10.55
2023-01-09T19:39:42.250Z,5.82
2023-01-09T19:43:02.708Z,7.35
2023-01-09T19:45:50.666Z,5.15
2023-01-09T19:48:21.590Z,8.43
2023-01-09T19:50:49.036Z,8.45
2023-01-09T19:57:05.813Z,7.28
2023-01-09T20:05:09.073Z,5.20
2023-01-09T20:08:53.752Z,5.22
2023-01-09T20:11:54.696Z,5.97
2023-01-09T20:14:22.892Z,6.38
2023-01-09T20:17:03.895Z,5.18
2023-01-09T20:20:01.570Z,8.52
2023-01-09T20:22:29.256Z,5.70
2023-01-09T20:26:37.900Z,3.05
2023-01-09T20:29:23.958Z,4.68
2023-01-09T20:35:13.423Z,3.40
2023-01-09T20:37:48.235Z,5.47
2023-01-09T20:44:25.708Z,4.80
2023-01-09T20:46:53.720Z,4.22
2023-01-09T20:58:06.371Z,6.93
2023-01-09T21:02:24.531Z,5.68
2023-01-09T21:04:29.305Z,8.85
2023-01-09T21:06:56.796Z,5.97
2023-01-09T21:09:42.423Z,4.50
2023-01-09T21:12:29.148Z,4.75
2023-01-09T21:15:06.876Z,5.55
2023-01-09T21:17:42.754Z,6.75
2023-01-09T21:20:19.904Z,4.00
2023-01-09T21:22:50.499Z,6.32
2023-01-09T21:25:17.809Z,3.00
2023-01-09T21:28:12.000Z,6.82
2023-01-09T21:30:44.156Z,8.90
2023-01-09T21:33:11.734Z,7.78
2023-01-09T21:35:43.413Z,9.20
2023-01-09T21:38:13.501Z,9.32
2023-01-09T21:40:40.629Z,5.40
2023-01-09T21:43:34.422Z,9.85
2023-01-09T21:46:19.999Z,6.13
2023-01-09T21:48:47.164Z,4.30
2023-01-09T21:51:16.930Z,5.38
2023-01-09T21:53:44.206Z,6.15
2023-01-09T21:56:11.376Z,5.90
2023-01-09T21:58:38.517Z,6.38
2023-01-09T22:01:05.720Z,9.10
2023-01-09T22:03:32.869Z,6.13
2023-01-09T22:06:04.270Z,4.43
2023-01-09T22:08:31.569Z,5.10
2023-01-09T22:11:00.363Z,5.50
2023-01-09T22:13:28.591Z,4.22
2023-01-09T22:16:02.322Z,3.35
2023-01-09T22:18:29.347Z,4.53
2023-01-09T22:20:56.541Z,5.05
2023-01-09T22:23:23.698Z,4.30
2023-01-09T22:25:50.781Z,3.80
2023-01-09T22:28:17.824Z,3.65
2023-01-09T22:30:44.802Z,1.50
2023-01-09T22:33:12.657Z,1.80
2023-01-09T22:35:41.471Z,1.35
2023-01-09T22:38:10.638Z,2.03
2023-01-09T22:40:39.054Z,1.73
2023-01-09T22:43:06.392Z,2.78
2023-01-09T22:45:33.567Z,2.38
2023-01-09T22:48:00.551Z,5.95
2023-01-09T22:50:27.674Z,1.83
2023-01-09T22:52:57.698Z,4.28
2023-01-09T22:55:25.014Z,3.90
2023-01-09T22:57:52.052Z,4.05
2023-01-09T23:00:19.545Z,3.53
2023-01-09T23:02:47.984Z,3.90
2023-01-09T23:05:15.344Z,4.97
2023-01-09T23:07:42.324Z,3.92
2023-01-09T23:10:10.057Z,5.90
2023-01-09T23:12:37.170Z,5.45
2023-01-09T23:15:04.449Z,6.00
2023-01-09T23:17:32.012Z,7.63
2023-01-09T23:19:59.071Z,5.97
2023-01-09T23:22:26.373Z,4.97
2023-01-09T23:24:56.178Z,3.38
2023-01-09T23:27:23.276Z,8.68
2023-01-09T23:29:50.394Z,4.93
2023-01-09T23:32:17.469Z,6.32
2023-01-09T23:34:45.317Z,3.67
2023-01-09T23:37:14.293Z,8.27
2023-01-09T23:39:41.415Z,6.15
2023-01-09T23:42:29.478Z,4.93
2023-01-09T23:44:59.671Z,6.90
2023-01-09T23:47:26.843Z,8.70
2023-01-09T23:49:57.220Z,4.78
2023-01-09T23:52:24.474Z,5.28
2023-01-09T23:54:51.631Z,6.78
2023-01-09T23:57:18.980Z,9.70
2023-01-09T23:59:47.435Z,7.30
